sensor_id;sensor_type;location;lat;lon;timestamp;temperature;humidity
7384;DHT22;3733;47.994;8.820;2024-01-15T00:01:33;-2.50;99.90
7384;DHT22;3733;47.994;8.820;2024-01-15T00:03:59;-2.50;99.90
7384;DHT22;3733;47.994;8.820;2024-01-15T00:06:25;-2.50;99.90
7384;DHT22;3733;47.994;8.820;2024-01-15T00:08:52;-2.50;99.90
7384;DHT22;3733;47.994;8.820;2024-01-15T00:11:18;-2.50;99.90
7384;DHT22;3733;47.994;8.820;2024-01-15T00:13:43;-2.50;99.90
7384;DHT22;3733;47.994;8.820;2024-01-15T00:16:09;-2.50;99.90
7384;DHT22;3733;47.994;8.820;2024-01-15T00:18:35;-2.50;99.90
7384;DHT22;3733;47.994;8.820;2024-01-15T00:21:01;-2.50;99.90
7384;DHT22;3733;47.994;8.820;2024-01-15T00:23:27;-2.60;99.90
7384;DHT22;3733;47.994;8.820;2024-01-15T00:25:52;-2.60;99.90
7384;DHT22;3733;47.994;8.820;2024-01-15T00:28:18;-2.60;99.90
7384;DHT22;3733;47.994;8.820;2024-01-15T00:30:43;-2.60;99.90
7384;DHT22;3733;47.994;8.820;2024-01-15T00:33:09;-2.60;99.90
7384;DHT22;3733;47.994;8.820;2024-01-15T00:35:37;-2.60;99.90
7384;DHT22;3733;47.994;8.820;2024-01-15T00:38:03;-2.60;99.90
7384;DHT22;3733;47.994;8.820;2024-01-15T00:40:28;-2.60;99.90
7384;DHT22;3733;47.994;8.820;2024-01-15T00:42:54;-2.70;99.90
7384;DHT22;3733;47.994;8.820;2024-01-15T00:45:20;-2.70;99.90
7384;DHT22;3733;47.994;8.820;2024-01-15T00:47:45;-2.70;99.90
7384;DHT22;3733;47.994;8.820;2024-01-15T00:50:11;-2.70;99.90
7384;DHT22;3733;47.994;8.820;2024-01-15T00:52:36;-2.70;99.90
7384;DHT22;3733;47.994;8.820;2024-01-15T00:55:02;-2.70;99.90
7384;DHT22;3733;47.994;8.820;2024-01-15T00:57:28;-2.70;99.90
7384;DHT22;3733;47.994;8.820;2024-01-15T00:59:53;-2.70;99.90
7384;DHT22;3733;47.994;8.820;2024-01-15T01:02:19;-2.70;99.90
7384;DHT22;3733;47.994;8.820;2024-01-15T01:04:44;-2.70;99.90
7384;DHT22;3733;47.994;8.820;2024-01-15T01:07:10;-2.70;99.90
7384;DHT22;3733;47.994;8.820;2024-01-15T01:09:35;-2.60;99.90
7384;DHT22;3733;47.994;8.820;2024-01-15T01:12:01;-2.60;99.90
7384;DHT22;3733;47.994;8.820;2024-01-15T01:14:27;-2.60;99.90
7384;DHT22;3733;47.994;8.820;2024-01-15T01:16:52;-2.60;99.90
7384;DHT22;3733;47.994;8.820;2024-01-15T01:19:18;-2.50;99.90
7384;DHT22;3733;47.994;8.820;2024-01-15T01:21:43;-2.50;99.90
7384;DHT22;3733;47.994;8.820;2024-01-15T01:24:09;-2.50;99.90
7384;DHT22;3733;47.994;8.820;2024-01-15T01:26:34;-2.50;99.90
7384;DHT22;3733;47.994;8.820;2024-01-15T01:29:00;-2.60;99.90
7384;DHT22;3733;47.994;8.820;2024-01-15T01:31:25;-2.60;99.90
7384;DHT22;3733;47.994;8.820;2024-01-15T01:33:51;-2.60;99.90
7384;DHT22;3733;47.994;8.820;2024-01-15T01:36:17;-2.60;99.90
7384;DHT22;3733;47.994;8.820;2024-01-15T01:38:42;-2.60;99.90
7384;DHT22;3733;47.994;8.820;2024-01-15T01:41:08;-2.60;99.90
7384;DHT22;3733;47.994;8.820;2024-01-15T01:43:33;-2.60;99.90
7384;DHT22;3733;47.994;8.820;2024-01-15T01:46:00;-2.60;99.90
7384;DHT22;3733;47.994;8.820;2024-01-15T01:48:26;-2.60;99.90
7384;DHT22;3733;47.994;8.820;2024-01-15T01:50:58;-2.60;99.90
7384;DHT22;3733;47.994;8.820;2024-01-15T01:53:26;-2.60;99.90
7384;DHT22;3733;47.994;8.820;2024-01-15T01:55:53;-2.50;99.90
7384;DHT22;3733;47.994;8.820;2024-01-15T01:58:19;-2.50;99.90
7384;DHT22;3733;47.994;8.820;2024-01-15T02:00:47;-2.50;99.90
7384;DHT22;3733;47.994;8.820;2024-01-15T02:03:13;-2.50;99.90
7384;DHT22;3733;47.994;8.820;2024-01-15T02:05:39;-2.50;99.90
7384;DHT22;3733;47.994;8.820;2024-01-15T02:08:06;-2.50;99.90
7384;DHT22;3733;47.994;8.820;2024-01-15T02:10:31;-2.50;99.90
7384;DHT22;3733;47.994;8.820;2024-01-15T02:12:57;-2.50;99.90
7384;DHT22;3733;47.994;8.820;2024-01-15T02:15:23;-2.50;99.90
7384;DHT22;3733;47.994;8.820;2024-01-15T02:18:01;-2.50;99.90
7384;DHT22;3733;47.994;8.820;2024-01-15T02:20:27;-2.50;99.90
7384;DHT22;3733;47.994;8.820;2024-01-15T02:22:53;-2.50;99.90
7384;DHT22;3733;47.994;8.820;2024-01-15T02:25:19;-2.50;99.90
7384;DHT22;3733;47.994;8.820;2024-01-15T02:27:45;-2.40;99.90
7384;DHT22;3733;47.994;8.820;2024-01-15T02:30:12;-2.40;99.90
7384;DHT22;3733;47.994;8.820;2024-01-15T02:32:38;-2.40;99.90
7384;DHT22;3733;47.994;8.820;2024-01-15T02:35:04;-2.40;99.90
7384;DHT22;3733;47.994;8.820;2024-01-15T02:37:29;-2.40;99.90
7384;DHT22;3733;47.994;8.820;2024-01-15T02:39:55;-2.40;99.90
7384;DHT22;3733;47.994;8.820;2024-01-15T02:42:20;-2.40;99.90
7384;DHT22;3733;47.994;8.820;2024-01-15T02:44:46;-2.40;99.90
7384;DHT22;3733;47.994;8.820;2024-01-15T02:47:12;-2.40;99.90
7384;DHT22;3733;47.994;8.820;2024-01-15T02:49:37;-2.40;99.90
7384;DHT22;3733;47.994;8.820;2024-01-15T02:52:03;-2.40;99.90
7384;DHT22;3733;47.994;8.820;2024-01-15T02:54:28;-2.40;99.90
7384;DHT22;3733;47.994;8.820;2024-01-15T02:56:54;-2.40;99.90
7384;DHT22;3733;47.994;8.820;2024-01-15T02:59:20;-2.40;99.90
7384;DHT22;3733;47.994;8.820;2024-01-15T03:01:45;-2.40;99.90
7384;DHT22;3733;47.994;8.820;2024-01-15T03:04:11;-2.30;99.90
7384;DHT22;3733;47.994;8.820;2024-01-15T03:06:36;-2.30;99.90
7384;DHT22;3733;47.994;8.820;2024-01-15T03:09:02;-2.30;99.90
7384;DHT22;3733;47.994;8.820;2024-01-15T03:11:29;-2.30;99.90
7384;DHT22;3733;47.994;8.820;2024-01-15T03:13:54;-2.30;99.90
7384;DHT22;3733;47.994;8.820;2024-01-15T03:16:20;-2.30;99.90
7384;DHT22;3733;47.994;8.820;2024-01-15T03:18:46;-2.30;99.90
7384;DHT22;3733;47.994;8.820;2024-01-15T03:21:11;-2.30;99.90
7384;DHT22;3733;47.994;8.820;2024-01-15T03:23:37;-2.30;99.90
7384;DHT22;3733;47.994;8.820;2024-01-15T03:26:03;-2.30;99.90
7384;DHT22;3733;47.994;8.820;2024-01-15T03:28:29;-2.30;99.90
7384;DHT22;3733;47.994;8.820;2024-01-15T03:30:55;-2.30;99.90
7384;DHT22;3733;47.994;8.820;2024-01-15T03:33:21;-2.30;99.90
7384;DHT22;3733;47.994;8.820;2024-01-15T03:35:47;-2.30;99.90
7384;DHT22;3733;47.994;8.820;2024-01-15T03:38:12;-2.30;99.90
7384;DHT22;3733;47.994;8.820;2024-01-15T03:40:38;-2.20;99.90
7384;DHT22;3733;47.994;8.820;2024-01-15T03:43:03;-2.20;99.90
7384;DHT22;3733;47.994;8.820;2024-01-15T03:45:29;-2.20;99.90
7384;DHT22;3733;47.994;8.820;2024-01-15T03:47:55;-2.20;99.90
7384;DHT22;3733;47.994;8.820;2024-01-15T03:50:20;-2.30;99.90
7384;DHT22;3733;47.994;8.820;2024-01-15T03:52:46;-2.30;99.90
7384;DHT22;3733;47.994;8.820;2024-01-15T03:55:11;-2.30;99.90
7384;DHT22;3733;47.994;8.820;2024-01-15T03:57:37;-2.30;99.90
7384;DHT22;3733;47.994;8.820;2024-01-15T04:00:03;-2.30;99.90
7384;DHT22;3733;47.994;8.820;2024-01-15T04:02:29;-2.20;99.90
7384;DHT22;3733;47.994;8.820;2024-01-15T04:04:54;-2.20;99.90
7384;DHT22;3733;47.994;8.820;2024-01-15T04:07:20;-2.20;99.90
7384;DHT22;3733;47.994;8.820;2024-01-15T04:09:45;-2.20;99.90
7384;DHT22;3733;47.994;8.820;2024-01-15T04:12:11;-2.20;99.90
7384;DHT22;3733;47.994;8.820;2024-01-15T04:14:37;-2.20;99.90
7384;DHT22;3733;47.994;8.820;2024-01-15T04:17:02;-2.10;99.90
7384;DHT22;3733;47.994;8.820;2024-01-15T04:19:28;-2.10;99.90
7384;DHT22;3733;47.994;8.820;2024-01-15T04:21:53;-2.10;99.90
7384;DHT22;3733;47.994;8.820;2024-01-15T04:24:19;-2.10;99.90
7384;DHT22;3733;47.994;8.820;2024-01-15T04:26:45;-2.10;99.90
7384;DHT22;3733;47.994;8.820;2024-01-15T04:29:10;-2.10;99.90
7384;DHT22;3733;47.994;8.820;2024-01-15T04:31:36;-2.10;99.90
7384;DHT22;3733;47.994;8.820;2024-01-15T04:34:02;-2.10;99.90
7384;DHT22;3733;47.994;8.820;2024-01-15T04:36:27;-2.10;99.90
7384;DHT22;3733;47.994;8.820;2024-01-15T04:38:53;-2.10;99.90
7384;DHT22;3733;47.994;8.820;2024-01-15T04:41:18;-2.10;99.90
7384;DHT22;3733;47.994;8.820;2024-01-15T04:43:44;-2.10;99.90
7384;DHT22;3733;47.994;8.820;2024-01-15T04:46:10;-2.10;99.90
7384;DHT22;3733;47.994;8.820;2024-01-15T04:48:36;-2.10;99.90
7384;DHT22;3733;47.994;8.820;2024-01-15T04:51:04;-2.10;99.90
7384;DHT22;3733;47.994;8.820;2024-01-15T04:53:30;-2.10;99.90
7384;DHT22;3733;47.994;8.820;2024-01-15T04:55:55;-2.10;99.90
7384;DHT22;3733;47.994;8.820;2024-01-15T04:58:21;-2.10;99.90
7384;DHT22;3733;47.994;8.820;2024-01-15T05:00:50;-2.10;99.90
7384;DHT22;3733;47.994;8.820;2024-01-15T05:03:15;-2.10;99.90
7384;DHT22;3733;47.994;8.820;2024-01-15T05:05:41;-2.10;99.90
7384;DHT22;3733;47.994;8.820;2024-01-15T05:08:06;-2.00;99.90
7384;DHT22;3733;47.994;8.820;2024-01-15T05:10:32;-2.00;99.90
7384;DHT22;3733;47.994;8.820;2024-01-15T05:12:58;-2.00;99.90
7384;DHT22;3733;47.994;8.820;2024-01-15T05:15:23;-1.90;99.90
7384;DHT22;3733;47.994;8.820;2024-01-15T05:17:49;-1.90;99.90
7384;DHT22;3733;47.994;8.820;2024-01-15T05:20:14;-1.80;99.90
7384;DHT22;3733;47.994;8.820;2024-01-15T05:22:40;-1.80;99.90
7384;DHT22;3733;47.994;8.820;2024-01-15T05:25:06;-1.80;99.90
7384;DHT22;3733;47.994;8.820;2024-01-15T05:27:31;-1.80;99.90
7384;DHT22;3733;47.994;8.820;2024-01-15T05:29:57;-1.80;99.90
7384;DHT22;3733;47.994;8.820;2024-01-15T05:32:23;-1.80;99.90
7384;DHT22;3733;47.994;8.820;2024-01-15T05:34:49;-1.80;99.90
7384;DHT22;3733;47.994;8.820;2024-01-15T05:37:14;-1.80;99.90
7384;DHT22;3733;47.994;8.820;2024-01-15T05:39:40;-1.70;99.90
7384;DHT22;3733;47.994;8.820;2024-01-15T05:42:05;-1.70;99.90
7384;DHT22;3733;47.994;8.820;2024-01-15T05:44:31;-1.70;99.90
7384;DHT22;3733;47.994;8.820;2024-01-15T05:46:56;-1.70;99.90
7384;DHT22;3733;47.994;8.820;2024-01-15T05:49:22;-1.60;99.90
7384;DHT22;3733;47.994;8.820;2024-01-15T05:51:48;-1.60;99.80
7384;DHT22;3733;47.994;8.820;2024-01-15T05:54:13;-1.50;99.10
7384;DHT22;3733;47.994;8.820;2024-01-15T05:56:39;-1.50;98.50
7384;DHT22;3733;47.994;8.820;2024-01-15T05:59:05;-1.50;96.70
7384;DHT22;3733;47.994;8.820;2024-01-15T06:01:31;-1.40;95.60
7384;DHT22;3733;47.994;8.820;2024-01-15T06:03:56;-1.40;95.00
7384;DHT22;3733;47.994;8.820;2024-01-15T06:06:22;-1.30;94.50
7384;DHT22;3733;47.994;8.820;2024-01-15T06:08:47;-1.30;94.00
7384;DHT22;3733;47.994;8.820;2024-01-15T06:11:13;-1.30;94.30
7384;DHT22;3733;47.994;8.820;2024-01-15T06:13:39;-1.30;94.60
7384;DHT22;3733;47.994;8.820;2024-01-15T06:16:14;-1.20;95.10
7384;DHT22;3733;47.994;8.820;2024-01-15T06:18:44;-1.20;96.00
7384;DHT22;3733;47.994;8.820;2024-01-15T06:21:10;-1.20;97.00
7384;DHT22;3733;47.994;8.820;2024-01-15T06:23:38;-1.20;96.90
7384;DHT22;3733;47.994;8.820;2024-01-15T06:26:04;-1.30;97.10
7384;DHT22;3733;47.994;8.820;2024-01-15T06:28:30;-1.30;96.30
7384;DHT22;3733;47.994;8.820;2024-01-15T06:30:57;-1.30;96.80
7384;DHT22;3733;47.994;8.820;2024-01-15T06:33:23;-1.30;97.30
7384;DHT22;3733;47.994;8.820;2024-01-15T06:35:49;-1.30;98.00
7384;DHT22;3733;47.994;8.820;2024-01-15T06:38:16;-1.30;96.80
7384;DHT22;3733;47.994;8.820;2024-01-15T06:40:41;-1.30;96.00
7384;DHT22;3733;47.994;8.820;2024-01-15T06:43:11;-1.30;96.10
7384;DHT22;3733;47.994;8.820;2024-01-15T06:45:37;-1.30;96.00
7384;DHT22;3733;47.994;8.820;2024-01-15T06:48:03;-1.30;95.70
7384;DHT22;3733;47.994;8.820;2024-01-15T06:50:28;-1.30;95.30
7384;DHT22;3733;47.994;8.820;2024-01-15T06:52:54;-1.30;94.80
7384;DHT22;3733;47.994;8.820;2024-01-15T06:55:19;-1.30;92.90
7384;DHT22;3733;47.994;8.820;2024-01-15T06:57:45;-1.30;90.90
7384;DHT22;3733;47.994;8.820;2024-01-15T07:00:11;-1.30;86.10
7384;DHT22;3733;47.994;8.820;2024-01-15T07:02:37;-1.30;85.70
7384;DHT22;3733;47.994;8.820;2024-01-15T07:05:02;-1.30;85.50
7384;DHT22;3733;47.994;8.820;2024-01-15T07:07:30;-1.30;85.90
7384;DHT22;3733;47.994;8.820;2024-01-15T07:09:56;-1.30;83.80
7384;DHT22;3733;47.994;8.820;2024-01-15T07:12:22;-1.30;82.90
7384;DHT22;3733;47.994;8.820;2024-01-15T07:14:48;-1.30;80.20
7384;DHT22;3733;47.994;8.820;2024-01-15T07:17:14;-1.30;81.20
7384;DHT22;3733;47.994;8.820;2024-01-15T07:19:40;-1.30;81.80
7384;DHT22;3733;47.994;8.820;2024-01-15T07:22:06;-1.30;82.40
7384;DHT22;3733;47.994;8.820;2024-01-15T07:24:32;-1.30;84.00
7384;DHT22;3733;47.994;8.820;2024-01-15T07:26:59;-1.30;83.60
7384;DHT22;3733;47.994;8.820;2024-01-15T07:29:25;-1.40;82.50
7384;DHT22;3733;47.994;8.820;2024-01-15T07:31:51;-1.40;83.00
7384;DHT22;3733;47.994;8.820;2024-01-15T07:34:17;-1.40;81.50
7384;DHT22;3733;47.994;8.820;2024-01-15T07:36:46;-1.40;81.70
7384;DHT22;3733;47.994;8.820;2024-01-15T07:39:11;-1.40;81.30
7384;DHT22;3733;47.994;8.820;2024-01-15T07:41:37;-1.40;81.50
7384;DHT22;3733;47.994;8.820;2024-01-15T07:44:04;-1.40;81.80
7384;DHT22;3733;47.994;8.820;2024-01-15T07:46:30;-1.40;81.20
7384;DHT22;3733;47.994;8.820;2024-01-15T07:48:56;-1.30;81.00
7384;DHT22;3733;47.994;8.820;2024-01-15T07:51:23;-1.40;81.80
7384;DHT22;3733;47.994;8.820;2024-01-15T07:53:49;-1.40;82.60
7384;DHT22;3733;47.994;8.820;2024-01-15T07:56:15;-1.40;83.40
7384;DHT22;3733;47.994;8.820;2024-01-15T07:58:41;-1.40;84.20
7384;DHT22;3733;47.994;8.820;2024-01-15T08:01:07;-1.40;84.70
7384;DHT22;3733;47.994;8.820;2024-01-15T08:03:33;-1.30;84.90
7384;DHT22;3733;47.994;8.820;2024-01-15T08:05:59;-1.30;85.10
7384;DHT22;3733;47.994;8.820;2024-01-15T08:08:25;-1.30;86.00
7384;DHT22;3733;47.994;8.820;2024-01-15T08:10:52;-1.30;87.10
7384;DHT22;3733;47.994;8.820;2024-01-15T08:13:18;-1.30;88.10
7384;DHT22;3733;47.994;8.820;2024-01-15T08:15:44;-1.30;88.80
7384;DHT22;3733;47.994;8.820;2024-01-15T08:18:09;-1.20;88.70
7384;DHT22;3733;47.994;8.820;2024-01-15T08:20:35;-1.30;88.30
7384;DHT22;3733;47.994;8.820;2024-01-15T08:23:01;-1.20;88.20
7384;DHT22;3733;47.994;8.820;2024-01-15T08:25:26;-1.20;85.10
7384;DHT22;3733;47.994;8.820;2024-01-15T08:27:52;-1.20;85.10
7384;DHT22;3733;47.994;8.820;2024-01-15T08:30:18;-1.20;84.50
7384;DHT22;3733;47.994;8.820;2024-01-15T08:32:44;-1.20;85.30
7384;DHT22;3733;47.994;8.820;2024-01-15T08:35:10;-1.20;86.70
7384;DHT22;3733;47.994;8.820;2024-01-15T08:37:37;-1.20;88.10
7384;DHT22;3733;47.994;8.820;2024-01-15T08:40:03;-1.10;88.20
7384;DHT22;3733;47.994;8.820;2024-01-15T08:42:29;-1.10;88.00
7384;DHT22;3733;47.994;8.820;2024-01-15T08:44:55;-1.00;88.30
7384;DHT22;3733;47.994;8.820;2024-01-15T08:47:20;-1.00;88.10
7384;DHT22;3733;47.994;8.820;2024-01-15T08:49:46;-0.90;86.90
7384;DHT22;3733;47.994;8.820;2024-01-15T08:52:12;-0.70;87.00
7384;DHT22;3733;47.994;8.820;2024-01-15T08:54:39;-0.60;84.00
7384;DHT22;3733;47.994;8.820;2024-01-15T08:57:04;-0.60;80.10
7384;DHT22;3733;47.994;8.820;2024-01-15T08:59:30;-0.50;77.80
7384;DHT22;3733;47.994;8.820;2024-01-15T09:01:55;-0.50;76.70
7384;DHT22;3733;47.994;8.820;2024-01-15T09:04:25;-0.40;75.90
7384;DHT22;3733;47.994;8.820;2024-01-15T09:06:50;-0.40;74.90
7384;DHT22;3733;47.994;8.820;2024-01-15T09:09:16;-0.40;74.50
7384;DHT22;3733;47.994;8.820;2024-01-15T09:11:41;-0.30;74.90
7384;DHT22;3733;47.994;8.820;2024-01-15T09:14:07;-0.30;74.40
7384;DHT22;3733;47.994;8.820;2024-01-15T09:16:34;-0.30;73.60
7384;DHT22;3733;47.994;8.820;2024-01-15T09:19:00;-0.20;74.50
7384;DHT22;3733;47.994;8.820;2024-01-15T09:21:26;-0.20;74.00
7384;DHT22;3733;47.994;8.820;2024-01-15T09:23:51;-0.20;74.70
7384;DHT22;3733;47.994;8.820;2024-01-15T09:26:17;-0.20;74.10
7384;DHT22;3733;47.994;8.820;2024-01-15T09:28:43;-0.30;69.20
7384;DHT22;3733;47.994;8.820;2024-01-15T09:31:08;-0.30;70.00
7384;DHT22;3733;47.994;8.820;2024-01-15T09:33:34;-0.30;71.10
7384;DHT22;3733;47.994;8.820;2024-01-15T09:36:03;-0.20;71.10
7384;DHT22;3733;47.994;8.820;2024-01-15T09:38:30;-0.20;69.40
7384;DHT22;3733;47.994;8.820;2024-01-15T09:40:57;-0.10;68.70
7384;DHT22;3733;47.994;8.820;2024-01-15T09:43:23;-0.10;66.80
7384;DHT22;3733;47.994;8.820;2024-01-15T09:45:50;0.00;66.30
7384;DHT22;3733;47.994;8.820;2024-01-15T09:48:16;0.00;65.50
7384;DHT22;3733;47.994;8.820;2024-01-15T09:50:42;0.10;64.60
7384;DHT22;3733;47.994;8.820;2024-01-15T09:53:09;0.10;64.00
7384;DHT22;3733;47.994;8.820;2024-01-15T09:55:36;0.20;63.50
7384;DHT22;3733;47.994;8.820;2024-01-15T09:58:03;0.20;63.00
7384;DHT22;3733;47.994;8.820;2024-01-15T10:00:29;0.30;63.20
7384;DHT22;3733;47.994;8.820;2024-01-15T10:02:56;0.30;63.40
7384;DHT22;3733;47.994;8.820;2024-01-15T10:05:22;0.40;63.70
7384;DHT22;3733;47.994;8.820;2024-01-15T10:07:48;0.40;63.40
7384;DHT22;3733;47.994;8.820;2024-01-15T10:10:16;0.40;63.50
7384;DHT22;3733;47.994;8.820;2024-01-15T10:12:42;0.50;63.70
7384;DHT22;3733;47.994;8.820;2024-01-15T10:15:11;0.50;63.10
7384;DHT22;3733;47.994;8.820;2024-01-15T10:17:38;0.50;62.60
7384;DHT22;3733;47.994;8.820;2024-01-15T10:20:12;0.50;62.70
7384;DHT22;3733;47.994;8.820;2024-01-15T10:22:45;0.50;61.60
7384;DHT22;3733;47.994;8.820;2024-01-15T10:25:14;0.50;61.30
7384;DHT22;3733;47.994;8.820;2024-01-15T10:27:40;0.50;61.50
7384;DHT22;3733;47.994;8.820;2024-01-15T10:30:10;0.50;61.20
7384;DHT22;3733;47.994;8.820;2024-01-15T10:32:36;0.50;61.60
7384;DHT22;3733;47.994;8.820;2024-01-15T10:35:02;0.50;60.80
7384;DHT22;3733;47.994;8.820;2024-01-15T10:37:33;0.60;60.90
7384;DHT22;3733;47.994;8.820;2024-01-15T10:40:02;0.70;61.40
7384;DHT22;3733;47.994;8.820;2024-01-15T10:42:30;0.80;61.30
7384;DHT22;3733;47.994;8.820;2024-01-15T10:44:56;1.00;61.10
7384;DHT22;3733;47.994;8.820;2024-01-15T10:47:22;1.10;59.80
7384;DHT22;3733;47.994;8.820;2024-01-15T10:49:48;1.20;59.80
7384;DHT22;3733;47.994;8.820;2024-01-15T10:52:15;1.20;58.80
7384;DHT22;3733;47.994;8.820;2024-01-15T10:54:41;1.30;59.00
7384;DHT22;3733;47.994;8.820;2024-01-15T10:57:08;1.40;58.80
7384;DHT22;3733;47.994;8.820;2024-01-15T10:59:34;1.40;58.00
7384;DHT22;3733;47.994;8.820;2024-01-15T11:02:01;1.50;57.30
7384;DHT22;3733;47.994;8.820;2024-01-15T11:04:27;1.50;57.40
7384;DHT22;3733;47.994;8.820;2024-01-15T11:06:54;1.60;57.10
7384;DHT22;3733;47.994;8.820;2024-01-15T11:09:20;1.60;57.30
7384;DHT22;3733;47.994;8.820;2024-01-15T11:11:47;1.60;58.00
7384;DHT22;3733;47.994;8.820;2024-01-15T11:14:34;1.60;57.60
7384;DHT22;3733;47.994;8.820;2024-01-15T11:17:00;1.50;56.80
7384;DHT22;3733;47.994;8.820;2024-01-15T11:19:27;1.50;56.80
7384;DHT22;3733;47.994;8.820;2024-01-15T11:22:00;1.50;57.50
7384;DHT22;3733;47.994;8.820;2024-01-15T11:24:40;1.40;57.20
7384;DHT22;3733;47.994;8.820;2024-01-15T11:27:08;1.40;57.00
7384;DHT22;3733;47.994;8.820;2024-01-15T11:29:37;1.30;57.00
7384;DHT22;3733;47.994;8.820;2024-01-15T11:32:09;1.30;57.50
7384;DHT22;3733;47.994;8.820;2024-01-15T11:37:15;1.40;56.80
7384;DHT22;3733;47.994;8.820;2024-01-15T11:39:42;1.40;56.80
7384;DHT22;3733;47.994;8.820;2024-01-15T11:42:12;1.40;56.70
7384;DHT22;3733;47.994;8.820;2024-01-15T11:44:39;1.40;57.20
7384;DHT22;3733;47.994;8.820;2024-01-15T11:47:09;1.40;57.50
7384;DHT22;3733;47.994;8.820;2024-01-15T11:52:11;1.30;57.40
7384;DHT22;3733;47.994;8.820;2024-01-15T11:54:38;1.30;57.50
7384;DHT22;3733;47.994;8.820;2024-01-15T11:57:13;1.30;57.60
7384;DHT22;3733;47.994;8.820;2024-01-15T11:59:42;1.30;57.90
7384;DHT22;3733;47.994;8.820;2024-01-15T12:02:08;1.30;57.70
7384;DHT22;3733;47.994;8.820;2024-01-15T12:04:36;1.30;57.50
7384;DHT22;3733;47.994;8.820;2024-01-15T12:07:02;1.30;57.50
7384;DHT22;3733;47.994;8.820;2024-01-15T12:09:28;1.20;57.60
7384;DHT22;3733;47.994;8.820;2024-01-15T12:12:00;1.20;57.80
7384;DHT22;3733;47.994;8.820;2024-01-15T12:14:31;1.20;57.60
7384;DHT22;3733;47.994;8.820;2024-01-15T12:16:57;1.20;57.70
7384;DHT22;3733;47.994;8.820;2024-01-15T12:19:23;1.20;57.90
7384;DHT22;3733;47.994;8.820;2024-01-15T12:21:50;1.10;58.00
7384;DHT22;3733;47.994;8.820;2024-01-15T12:24:17;1.10;58.30
7384;DHT22;3733;47.994;8.820;2024-01-15T12:26:43;1.20;58.80
7384;DHT22;3733;47.994;8.820;2024-01-15T12:29:11;1.20;58.70
7384;DHT22;3733;47.994;8.820;2024-01-15T12:31:36;1.20;58.50
7384;DHT22;3733;47.994;8.820;2024-01-15T12:34:02;1.20;58.70
7384;DHT22;3733;47.994;8.820;2024-01-15T12:36:31;1.20;58.90
7384;DHT22;3733;47.994;8.820;2024-01-15T12:38:59;1.20;59.10
7384;DHT22;3733;47.994;8.820;2024-01-15T12:41:25;1.30;59.20
7384;DHT22;3733;47.994;8.820;2024-01-15T12:43:51;1.30;59.20
7384;DHT22;3733;47.994;8.820;2024-01-15T12:46:16;1.30;59.10
7384;DHT22;3733;47.994;8.820;2024-01-15T12:48:42;1.40;59.20
7384;DHT22;3733;47.994;8.820;2024-01-15T12:51:08;1.30;59.40
7384;DHT22;3733;47.994;8.820;2024-01-15T12:53:33;1.40;59.30
7384;DHT22;3733;47.994;8.820;2024-01-15T12:56:00;1.30;59.50
7384;DHT22;3733;47.994;8.820;2024-01-15T12:58:25;1.30;60.10
7384;DHT22;3733;47.994;8.820;2024-01-15T13:00:51;1.40;60.50
7384;DHT22;3733;47.994;8.820;2024-01-15T13:03:17;1.40;60.50
7384;DHT22;3733;47.994;8.820;2024-01-15T13:05:43;1.40;60.30
7384;DHT22;3733;47.994;8.820;2024-01-15T13:08:10;1.40;60.10
7384;DHT22;3733;47.994;8.820;2024-01-15T13:10:36;1.40;59.90
7384;DHT22;3733;47.994;8.820;2024-01-15T13:13:01;1.40;60.30
7384;DHT22;3733;47.994;8.820;2024-01-15T13:15:27;1.40;60.10
7384;DHT22;3733;47.994;8.820;2024-01-15T13:17:52;1.50;60.20
7384;DHT22;3733;47.994;8.820;2024-01-15T13:20:18;1.50;60.00
7384;DHT22;3733;47.994;8.820;2024-01-15T13:22:44;1.50;60.50
7384;DHT22;3733;47.994;8.820;2024-01-15T13:25:10;1.50;60.30
7384;DHT22;3733;47.994;8.820;2024-01-15T13:27:36;1.40;60.30
7384;DHT22;3733;47.994;8.820;2024-01-15T13:30:03;1.40;60.20
7384;DHT22;3733;47.994;8.820;2024-01-15T13:32:29;1.40;60.20
7384;DHT22;3733;47.994;8.820;2024-01-15T13:34:55;1.30;60.40
7384;DHT22;3733;47.994;8.820;2024-01-15T13:37:21;1.30;60.80
7384;DHT22;3733;47.994;8.820;2024-01-15T13:39:50;1.30;61.20
7384;DHT22;3733;47.994;8.820;2024-01-15T13:42:17;1.40;60.70
7384;DHT22;3733;47.994;8.820;2024-01-15T13:44:42;1.40;60.70
7384;DHT22;3733;47.994;8.820;2024-01-15T13:47:08;1.40;60.70
7384;DHT22;3733;47.994;8.820;2024-01-15T13:49:34;1.40;60.80
7384;DHT22;3733;47.994;8.820;2024-01-15T13:52:01;1.50;61.00
7384;DHT22;3733;47.994;8.820;2024-01-15T13:54:29;1.40;60.90
7384;DHT22;3733;47.994;8.820;2024-01-15T13:56:55;1.40;61.70
7384;DHT22;3733;47.994;8.820;2024-01-15T13:59:21;1.30;61.20
7384;DHT22;3733;47.994;8.820;2024-01-15T14:01:47;1.30;61.60
7384;DHT22;3733;47.994;8.820;2024-01-15T14:04:13;1.20;61.90
7384;DHT22;3733;47.994;8.820;2024-01-15T14:06:38;1.10;62.40
7384;DHT22;3733;47.994;8.820;2024-01-15T14:09:04;1.00;63.30
7384;DHT22;3733;47.994;8.820;2024-01-15T14:11:30;1.00;63.90
7384;DHT22;3733;47.994;8.820;2024-01-15T14:13:56;0.90;64.50
7384;DHT22;3733;47.994;8.820;2024-01-15T14:16:22;0.90;65.30
7384;DHT22;3733;47.994;8.820;2024-01-15T14:18:47;0.80;66.00
7384;DHT22;3733;47.994;8.820;2024-01-15T14:21:13;0.80;66.60
7384;DHT22;3733;47.994;8.820;2024-01-15T14:23:39;0.80;67.10
7384;DHT22;3733;47.994;8.820;2024-01-15T14:26:05;0.80;67.10
7384;DHT22;3733;47.994;8.820;2024-01-15T14:28:31;0.80;67.80
7384;DHT22;3733;47.994;8.820;2024-01-15T14:30:56;0.70;68.50
7384;DHT22;3733;47.994;8.820;2024-01-15T14:33:25;0.70;68.40
7384;DHT22;3733;47.994;8.820;2024-01-15T14:35:51;0.70;67.70
7384;DHT22;3733;47.994;8.820;2024-01-15T14:38:16;0.70;67.70
7384;DHT22;3733;47.994;8.820;2024-01-15T14:40:42;0.70;68.20
7384;DHT22;3733;47.994;8.820;2024-01-15T14:43:09;0.70;68.20
7384;DHT22;3733;47.994;8.820;2024-01-15T14:45:35;0.70;68.30
7384;DHT22;3733;47.994;8.820;2024-01-15T14:48:01;0.60;68.80
7384;DHT22;3733;47.994;8.820;2024-01-15T14:50:26;0.60;69.50
7384;DHT22;3733;47.994;8.820;2024-01-15T14:52:52;0.60;69.90
7384;DHT22;3733;47.994;8.820;2024-01-15T14:55:17;0.50;71.10
7384;DHT22;3733;47.994;8.820;2024-01-15T14:57:43;0.50;72.50
7384;DHT22;3733;47.994;8.820;2024-01-15T15:00:09;0.40;73.40
7384;DHT22;3733;47.994;8.820;2024-01-15T15:02:37;0.40;74.70
7384;DHT22;3733;47.994;8.820;2024-01-15T15:05:03;0.30;75.40
7384;DHT22;3733;47.994;8.820;2024-01-15T15:07:29;0.30;76.20
7384;DHT22;3733;47.994;8.820;2024-01-15T15:09:55;0.30;76.40
7384;DHT22;3733;47.994;8.820;2024-01-15T15:12:20;0.30;77.70
7384;DHT22;3733;47.994;8.820;2024-01-15T15:14:46;0.30;78.40
7384;DHT22;3733;47.994;8.820;2024-01-15T15:17:12;0.20;78.50
7384;DHT22;3733;47.994;8.820;2024-01-15T15:19:37;0.20;80.10
7384;DHT22;3733;47.994;8.820;2024-01-15T15:22:05;0.20;81.10
7384;DHT22;3733;47.994;8.820;2024-01-15T15:24:31;0.20;81.50
7384;DHT22;3733;47.994;8.820;2024-01-15T15:26:56;0.20;82.90
7384;DHT22;3733;47.994;8.820;2024-01-15T15:29:22;0.20;83.00
7384;DHT22;3733;47.994;8.820;2024-01-15T15:31:50;0.20;82.50
7384;DHT22;3733;47.994;8.820;2024-01-15T15:34:15;0.10;83.30
7384;DHT22;3733;47.994;8.820;2024-01-15T15:36:41;0.10;84.30
7384;DHT22;3733;47.994;8.820;2024-01-15T15:39:07;0.10;84.50
7384;DHT22;3733;47.994;8.820;2024-01-15T15:41:33;0.10;85.80
7384;DHT22;3733;47.994;8.820;2024-01-15T15:43:58;0.10;86.40
7384;DHT22;3733;47.994;8.820;2024-01-15T15:46:24;0.00;87.30
7384;DHT22;3733;47.994;8.820;2024-01-15T15:48:50;0.00;87.40
7384;DHT22;3733;47.994;8.820;2024-01-15T15:51:15;0.00;87.90
7384;DHT22;3733;47.994;8.820;2024-01-15T15:53:41;0.00;89.40
7384;DHT22;3733;47.994;8.820;2024-01-15T15:56:06;0.00;90.10
7384;DHT22;3733;47.994;8.820;2024-01-15T15:58:32;0.00;89.80
7384;DHT22;3733;47.994;8.820;2024-01-15T16:00:58;0.00;88.40
7384;DHT22;3733;47.994;8.820;2024-01-15T16:03:24;0.00;89.40
7384;DHT22;3733;47.994;8.820;2024-01-15T16:05:50;0.00;90.20